createdAt,value
2018-06-27T00:00:00.295Z,7.77
2018-06-27T00:02:29.331Z,7.03
2018-06-27T00:05:01.283Z,8.20
2018-06-27T00:07:30.523Z,7.43
2018-06-27T00:09:59.490Z,7.60
2018-06-27T00:12:28.502Z,8.07
2018-06-27T00:14:57.595Z,7.23
2018-06-27T00:17:26.699Z,7.80
2018-06-27T00:19:55.674Z,8.00
2018-06-27T00:22:24.650Z,8.23
2018-06-27T00:24:53.690Z,7.47
2018-06-27T00:27:22.667Z,8.10
2018-06-27T00:29:51.643Z,7.93
2018-06-27T00:32:20.642Z,7.97
2018-06-27T00:34:49.639Z,8.13
2018-06-27T00:37:18.567Z,8.23
2018-06-27T00:39:47.583Z,7.73
2018-06-27T00:42:16.642Z,7.70
2018-06-27T00:44:45.629Z,8.50
2018-06-27T00:47:14.736Z,7.97
2018-06-27T00:49:43.686Z,8.33
2018-06-27T00:52:12.675Z,7.83
2018-06-27T00:54:41.700Z,7.23
2018-06-27T00:57:10.660Z,7.17
2018-06-27T00:59:39.627Z,8.10
2018-06-27T01:02:08.687Z,7.90
2018-06-27T01:04:37.738Z,7.70
2018-06-27T01:07:06.701Z,7.93
2018-06-27T01:09:35.672Z,8.73
2018-06-27T01:12:04.671Z,8.33
2018-06-27T01:14:33.649Z,7.97
2018-06-27T01:17:02.613Z,8.73
2018-06-27T01:19:31.947Z,8.13
2018-06-27T01:22:00.891Z,8.60
2018-06-27T01:24:29.897Z,8.37
2018-06-27T01:26:58.882Z,8.20
2018-06-27T01:29:27.866Z,8.07
2018-06-27T01:31:56.918Z,8.20
2018-06-27T01:34:25.902Z,8.47
2018-06-27T01:36:54.928Z,7.60
2018-06-27T01:39:23.900Z,7.43
2018-06-27T01:41:52.872Z,8.33
2018-06-27T01:44:21.834Z,8.07
2018-06-27T01:46:51.077Z,9.07
2018-06-27T01:49:20.031Z,8.87
2018-06-27T01:51:48.996Z,8.50
2018-06-27T01:54:18.064Z,8.13
2018-06-27T01:56:47.122Z,7.60
2018-06-27T01:59:16.146Z,8.50
2018-06-27T02:01:45.152Z,8.90
2018-06-27T02:04:14.116Z,8.63
2018-06-27T02:06:43.146Z,9.20
2018-06-27T02:09:12.115Z,8.60
2018-06-27T02:11:41.095Z,8.30
2018-06-27T02:14:10.087Z,8.53
2018-06-27T02:16:39.038Z,8.93
2018-06-27T02:19:08.008Z,8.83
2018-06-27T02:21:36.975Z,8.43
2018-06-27T02:24:05.990Z,9.07
2018-06-27T02:26:34.991Z,8.83
2018-06-27T02:29:03.992Z,9.00
2018-06-27T02:31:32.952Z,8.67
2018-06-27T02:34:01.943Z,8.83
2018-06-27T02:36:30.954Z,8.60
2018-06-27T02:38:59.965Z,8.83
2018-06-27T02:41:28.935Z,9.20
2018-06-27T02:43:57.910Z,9.53
2018-06-27T02:46:26.887Z,9.03
2018-06-27T02:48:55.850Z,8.80
2018-06-27T02:51:24.855Z,9.00
2018-06-27T02:53:53.862Z,9.07
2018-06-27T02:56:22.871Z,9.30
2018-06-27T02:58:51.851Z,10.10
2018-06-27T03:01:20.851Z,23.43
2018-06-27T03:03:49.843Z,11.97
2018-06-27T03:06:18.847Z,9.33
2018-06-27T03:08:47.921Z,9.07
2018-06-27T03:11:16.942Z,9.20
2018-06-27T03:13:45.915Z,9.60
2018-06-27T03:16:14.914Z,9.23
2018-06-27T03:18:53.116Z,9.87
2018-06-27T03:21:22.742Z,8.50
2018-06-27T03:23:51.871Z,9.33
2018-06-27T03:26:20.857Z,8.87
2018-06-27T03:28:50.107Z,9.23
2018-06-27T03:31:19.356Z,8.83
2018-06-27T03:33:48.119Z,9.97
2018-06-27T03:36:17.088Z,8.70
2018-06-27T03:38:46.061Z,8.40
2018-06-27T03:41:15.036Z,8.27
2018-06-27T03:43:43.991Z,7.77
2018-06-27T03:46:13.040Z,9.43
2018-06-27T03:48:42.015Z,9.17
2018-06-27T03:51:10.959Z,8.53
2018-06-27T03:53:41.861Z,9.50
2018-06-27T03:56:11.794Z,9.13
2018-06-27T03:58:40.766Z,8.83
2018-06-27T04:01:10.703Z,8.93
2018-06-27T04:03:40.922Z,9.03
2018-06-27T04:06:10.843Z,8.53
2018-06-27T04:08:39.873Z,9.47
2018-06-27T04:11:08.911Z,8.97
2018-06-27T04:13:37.890Z,9.50
2018-06-27T04:16:06.914Z,8.40
2018-06-27T04:18:35.963Z,9.17
2018-06-27T04:21:04.998Z,8.47
2018-06-27T04:23:33.978Z,8.40
2018-06-27T04:26:02.955Z,8.53
2018-06-27T04:28:31.986Z,9.33
2018-06-27T04:31:00.950Z,8.97
2018-06-27T04:33:29.932Z,8.97
2018-06-27T04:35:58.939Z,8.80
2018-06-27T04:40:49.011Z,8.50
2018-06-27T04:43:18.051Z,8.20
2018-06-27T04:45:46.940Z,7.87
2018-06-27T04:48:16.011Z,8.47
2018-06-27T04:50:44.959Z,8.50
2018-06-27T04:53:13.922Z,8.63
2018-06-27T04:55:42.942Z,9.53
2018-06-27T04:58:11.948Z,8.43
2018-06-27T05:00:41.007Z,8.10
2018-06-27T05:03:10.046Z,8.37
2018-06-27T05:05:39.047Z,14.63
2018-06-27T05:08:08.019Z,13.60
2018-06-27T05:10:37.007Z,8.77
2018-06-27T05:13:06.026Z,9.33
2018-06-27T05:15:35.122Z,9.13
2018-06-27T05:18:04.327Z,7.83
2018-06-27T05:20:33.477Z,9.57
2018-06-27T05:23:02.432Z,8.40
2018-06-27T05:25:31.606Z,8.80
2018-06-27T05:28:00.590Z,7.63
2018-06-27T05:30:29.671Z,7.97
2018-06-27T05:32:58.786Z,9.50
2018-06-27T05:35:27.820Z,10.60
2018-06-27T05:37:56.879Z,9.30
2018-06-27T05:40:25.878Z,9.60
2018-06-27T05:42:54.910Z,8.67
2018-06-27T05:45:23.879Z,10.73
2018-06-27T05:47:52.926Z,7.90
2018-06-27T05:50:21.894Z,9.07
2018-06-27T05:52:50.958Z,7.33
2018-06-27T05:55:20.140Z,8.10
2018-06-27T05:57:49.188Z,7.13
2018-06-27T06:00:18.414Z,7.20
2018-06-27T06:02:47.482Z,7.23
2018-06-27T06:05:17.242Z,7.50
2018-06-27T06:07:46.263Z,7.50
2018-06-27T06:10:15.359Z,7.80
2018-06-27T06:12:44.319Z,7.27
2018-06-27T06:15:13.322Z,7.17
2018-06-27T06:17:42.347Z,7.20
2018-06-27T06:20:11.307Z,6.87
2018-06-27T06:22:40.322Z,6.43
2018-06-27T06:25:09.383Z,6.20
2018-06-27T06:27:38.399Z,5.97
2018-06-27T06:30:07.355Z,5.90
2018-06-27T06:32:36.502Z,5.13
2018-06-27T06:35:05.520Z,5.77
2018-06-27T06:37:34.482Z,5.97
2018-06-27T06:40:03.529Z,6.07
2018-06-27T06:42:32.519Z,7.10
2018-06-27T06:45:01.578Z,4.13
2018-06-27T06:47:30.535Z,3.80
2018-06-27T06:49:59.523Z,4.30
2018-06-27T06:52:28.560Z,4.03
2018-06-27T06:54:57.582Z,3.30
2018-06-27T06:57:26.631Z,8.23
2018-06-27T06:59:55.610Z,4.60
2018-06-27T07:02:24.744Z,4.00
2018-06-27T07:04:53.785Z,2.87
2018-06-27T07:07:22.770Z,5.33
2018-06-27T07:09:51.841Z,6.80
2018-06-27T07:12:20.872Z,4.73
2018-06-27T07:14:49.841Z,3.23
2018-06-27T07:17:19.034Z,3.60
2018-06-27T07:19:48.036Z,3.30
2018-06-27T07:22:17.146Z,4.40
2018-06-27T07:24:46.087Z,3.90
2018-06-27T07:27:15.079Z,2.43
2018-06-27T07:29:44.051Z,5.57
2018-06-27T07:32:13.041Z,3.10
2018-06-27T07:34:42.047Z,2.37
2018-06-27T07:37:11.043Z,2.73
2018-06-27T07:39:40.016Z,1.90
2018-06-27T07:42:09.723Z,3.83
2018-06-27T07:44:38.691Z,1.70
2018-06-27T07:47:08.108Z,2.63
2018-06-27T07:49:37.175Z,1.67
2018-06-27T07:52:06.179Z,1.90
2018-06-27T07:54:39.214Z,2.13
2018-06-27T07:57:09.843Z,3.93
2018-06-27T07:59:38.998Z,2.57
2018-06-27T08:02:08.475Z,2.80
2018-06-27T08:04:37.477Z,3.43
2018-06-27T08:07:06.659Z,1.63
2018-06-27T08:09:35.626Z,2.70
2018-06-27T08:12:04.640Z,3.50
2018-06-27T08:14:33.651Z,2.70
2018-06-27T08:17:02.679Z,2.53
2018-06-27T08:19:31.746Z,2.70
2018-06-27T08:22:00.759Z,3.27
2018-06-27T08:24:29.835Z,5.03
2018-06-27T08:26:59.023Z,3.37
2018-06-27T08:29:28.086Z,1.40
2018-06-27T08:31:57.162Z,2.90
2018-06-27T08:34:26.146Z,3.00
2018-06-27T08:36:55.138Z,2.50
2018-06-27T08:39:24.154Z,3.67
2018-06-27T08:41:53.139Z,1.90
2018-06-27T08:44:22.223Z,3.40
2018-06-27T08:46:51.107Z,5.27
2018-06-27T08:49:20.199Z,3.70
2018-06-27T08:51:49.162Z,2.07
2018-06-27T08:54:18.242Z,4.40
2018-06-27T08:56:47.317Z,1.87
2018-06-27T08:59:16.280Z,3.63
2018-06-27T09:01:45.323Z,3.13
2018-06-27T09:04:14.331Z,4.03
2018-06-27T09:06:43.423Z,4.07
2018-06-27T09:09:12.807Z,2.17
2018-06-27T09:11:42.343Z,5.43
2018-06-27T09:14:11.302Z,2.27
2018-06-27T09:16:40.371Z,6.23
2018-06-27T09:19:09.384Z,2.00
2018-06-27T09:21:38.408Z,5.70
2018-06-27T09:24:07.420Z,2.30
2018-06-27T09:26:36.416Z,1.83
2018-06-27T09:29:05.432Z,3.10
2018-06-27T09:31:34.504Z,2.03
2018-06-27T09:34:03.535Z,2.00
2018-06-27T09:36:32.531Z,2.20
2018-06-27T09:39:01.515Z,2.40
2018-06-27T09:41:30.487Z,2.53
2018-06-27T09:43:59.439Z,2.90
2018-06-27T09:46:28.483Z,3.17
2018-06-27T09:48:57.500Z,2.67
2018-06-27T09:51:26.486Z,2.87
2018-06-27T09:53:55.593Z,3.70
2018-06-27T09:56:24.622Z,3.80
2018-06-27T09:58:53.768Z,2.40
2018-06-27T10:01:22.959Z,2.77
2018-06-27T10:03:51.999Z,2.60
2018-06-27T10:06:21.022Z,2.60
2018-06-27T10:08:50.227Z,3.10
2018-06-27T10:11:19.228Z,3.03
2018-06-27T10:13:48.247Z,4.00
2018-06-27T10:16:17.280Z,2.80
2018-06-27T10:18:46.264Z,2.93
2018-06-27T10:21:15.388Z,2.50
2018-06-27T10:23:44.375Z,2.47
2018-06-27T10:26:13.491Z,2.83
2018-06-27T10:28:42.608Z,2.40
2018-06-27T10:31:11.642Z,2.30
2018-06-27T10:33:40.654Z,4.67
2018-06-27T10:36:09.639Z,2.77
2018-06-27T10:38:38.686Z,2.50
2018-06-27T10:41:07.672Z,2.10
2018-06-27T10:43:36.671Z,2.50
2018-06-27T10:46:05.837Z,5.17
2018-06-27T10:48:34.932Z,4.33
2018-06-27T10:51:04.069Z,2.63
2018-06-27T10:53:33.044Z,2.53
2018-06-27T10:56:02.110Z,3.10
2018-06-27T10:58:31.083Z,5.30
2018-06-27T11:01:00.225Z,2.10
2018-06-27T11:03:29.436Z,2.20
2018-06-27T11:05:58.452Z,2.70
2018-06-27T11:08:27.519Z,2.10
2018-06-27T11:10:56.579Z,3.47
2018-06-27T11:13:25.635Z,2.47
2018-06-27T11:15:54.711Z,3.20
2018-06-27T11:18:23.797Z,2.20
2018-06-27T11:20:53.007Z,3.07
2018-06-27T11:23:22.145Z,3.07
2018-06-27T11:25:51.154Z,2.20
2018-06-27T11:28:20.151Z,2.30
2018-06-27T11:30:49.163Z,2.47
2018-06-27T11:33:18.340Z,2.50
2018-06-27T11:35:47.346Z,2.90
2018-06-27T11:38:16.535Z,3.30
2018-06-27T11:40:45.637Z,2.20
2018-06-27T11:43:14.651Z,2.80
2018-06-27T11:45:43.622Z,2.43
2018-06-27T11:48:12.876Z,2.50
2018-06-27T11:50:42.008Z,2.60
2018-06-27T11:53:11.102Z,3.27
2018-06-27T11:55:40.089Z,3.63
2018-06-27T11:58:09.067Z,2.27
2018-06-27T12:00:38.119Z,3.17
2018-06-27T12:03:07.236Z,4.07
2018-06-27T12:05:36.496Z,3.30
2018-06-27T12:08:05.655Z,4.17
2018-06-27T12:10:34.738Z,2.63
2018-06-27T12:13:03.793Z,2.63
2018-06-27T12:15:32.831Z,4.77
2018-06-27T12:18:01.808Z,2.47
2018-06-27T12:20:30.823Z,3.73
2018-06-27T12:22:59.859Z,3.60
2018-06-27T12:25:28.937Z,3.20
2018-06-27T12:27:57.933Z,4.30
2018-06-27T12:30:26.945Z,3.27
2018-06-27T12:32:55.916Z,3.80
2018-06-27T12:35:25.340Z,3.60
2018-06-27T12:37:54.551Z,3.47
2018-06-27T12:42:46.930Z,2.70
2018-06-27T12:45:16.036Z,3.03
2018-06-27T12:47:45.099Z,4.03
2018-06-27T12:50:14.232Z,3.83
2018-06-27T12:52:43.146Z,2.57
2018-06-27T12:55:13.584Z,3.03
2018-06-27T12:57:42.692Z,2.60
2018-06-27T13:00:12.011Z,2.57
2018-06-27T13:02:41.087Z,3.30
2018-06-27T13:05:10.293Z,2.30
2018-06-27T13:07:39.361Z,3.83
2018-06-27T13:10:08.923Z,3.03
2018-06-27T13:12:38.451Z,2.10
2018-06-27T13:15:07.755Z,3.53
2018-06-27T13:17:36.789Z,2.77
2018-06-27T13:20:06.291Z,3.40
2018-06-27T13:22:35.287Z,2.83
2018-06-27T13:25:04.413Z,2.10
2018-06-27T13:27:33.809Z,2.10
2018-06-27T13:30:03.109Z,3.17
2018-06-27T13:32:32.464Z,2.80
2018-06-27T13:35:01.423Z,2.80
2018-06-27T13:37:30.431Z,1.70
2018-06-27T13:39:59.474Z,2.60
2018-06-27T13:42:28.580Z,1.67
2018-06-27T13:44:57.555Z,1.90
2018-06-27T13:47:26.514Z,2.83
2018-06-27T13:49:55.572Z,3.73
2018-06-27T13:52:24.768Z,1.87
2018-06-27T13:54:54.730Z,4.80
2018-06-27T13:57:24.608Z,0.90
2018-06-27T13:59:53.619Z,1.03
2018-06-27T14:02:22.650Z,1.30
2018-06-27T14:04:51.747Z,0.80
2018-06-27T14:07:25.820Z,1.90
2018-06-27T14:09:54.975Z,2.80
2018-06-27T14:12:23.959Z,1.40
2018-06-27T14:14:53.397Z,1.83
2018-06-27T14:17:22.363Z,2.87
2018-06-27T14:19:51.363Z,2.33
2018-06-27T14:22:20.394Z,5.23
2018-06-27T14:24:49.472Z,3.13
2018-06-27T14:27:18.454Z,2.50
2018-06-27T14:29:47.488Z,2.00
2018-06-27T14:32:16.552Z,3.20
2018-06-27T14:34:45.534Z,2.43
2018-06-27T14:37:14.636Z,3.10
2018-06-27T14:39:44.515Z,3.23
2018-06-27T14:42:13.491Z,2.13
2018-06-27T14:44:42.531Z,1.93
2018-06-27T14:47:11.517Z,3.00
2018-06-27T14:49:40.541Z,4.40
2018-06-27T14:52:09.508Z,1.37
2018-06-27T14:54:38.454Z,2.87
2018-06-27T14:57:07.586Z,3.87
2018-06-27T14:59:36.627Z,5.33
2018-06-27T15:04:36.788Z,1.93
2018-06-27T15:07:05.854Z,1.93
2018-06-27T15:09:34.872Z,2.70
2018-06-27T15:12:04.000Z,2.30
2018-06-27T15:14:32.999Z,3.33
2018-06-27T15:17:02.059Z,4.50
2018-06-27T15:19:31.735Z,2.13
2018-06-27T15:22:00.702Z,2.73
2018-06-27T15:24:29.737Z,3.57
2018-06-27T15:26:58.846Z,2.37
2018-06-27T15:29:28.043Z,3.60
2018-06-27T15:31:57.266Z,5.60
2018-06-27T15:34:26.543Z,2.50
2018-06-27T15:36:55.757Z,3.27
2018-06-27T15:39:24.842Z,5.03
2018-06-27T15:41:53.891Z,4.37
2018-06-27T15:44:22.931Z,2.43
2018-06-27T15:46:52.005Z,3.37
2018-06-27T15:49:21.039Z,2.60
2018-06-27T15:51:50.007Z,2.77
2018-06-27T15:54:19.085Z,4.57
2018-06-27T15:56:48.074Z,2.90
2018-06-27T15:59:23.851Z,2.87
2018-06-27T16:01:52.827Z,2.93
2018-06-27T16:04:21.947Z,3.00
2018-06-27T16:06:50.939Z,3.00
2018-06-27T16:09:19.962Z,3.30
2018-06-27T16:11:49.075Z,2.97
2018-06-27T16:14:18.111Z,2.93
2018-06-27T16:16:47.177Z,3.03
2018-06-27T16:19:16.156Z,4.03
2018-06-27T16:21:45.203Z,2.97
2018-06-27T16:24:14.251Z,3.07
2018-06-27T16:26:43.187Z,3.47
2018-06-27T16:29:12.161Z,3.17
2018-06-27T16:31:41.147Z,2.50
2018-06-27T16:34:10.272Z,2.57
2018-06-27T16:36:39.325Z,2.47
2018-06-27T16:39:09.525Z,2.53
2018-06-27T16:41:38.667Z,2.23
2018-06-27T16:44:07.787Z,2.00
2018-06-27T16:46:36.855Z,2.57
2018-06-27T16:49:06.107Z,2.50
2018-06-27T16:51:35.236Z,2.37
2018-06-27T16:54:04.270Z,2.47
2018-06-27T16:56:33.344Z,2.30
2018-06-27T16:59:02.424Z,2.40
2018-06-27T17:01:31.584Z,2.60
2018-06-27T17:04:00.723Z,2.90
2018-06-27T17:06:29.717Z,2.73
2018-06-27T17:08:58.991Z,2.60
2018-06-27T17:11:28.132Z,2.87
2018-06-27T17:13:57.168Z,2.57
2018-06-27T17:16:26.210Z,3.13
2018-06-27T17:18:55.264Z,2.83
2018-06-27T17:21:24.307Z,2.50
2018-06-27T17:23:53.374Z,2.43
2018-06-27T17:26:22.455Z,2.77
2018-06-27T17:28:51.474Z,10.97
2018-06-27T17:31:20.592Z,3.20
2018-06-27T17:33:49.720Z,2.70
2018-06-27T17:36:18.863Z,3.07
2018-06-27T17:38:48.766Z,2.93
2018-06-27T17:41:17.934Z,3.00
2018-06-27T17:43:46.935Z,3.07
2018-06-27T17:46:15.955Z,2.40
2018-06-27T17:48:45.223Z,2.80
2018-06-27T17:51:14.330Z,3.20
2018-06-27T17:53:43.361Z,2.93
2018-06-27T17:56:12.284Z,2.70
2018-06-27T17:58:41.287Z,2.93
2018-06-27T18:01:10.274Z,2.63
2018-06-27T18:03:39.307Z,2.93
2018-06-27T18:06:08.335Z,3.20
2018-06-27T18:08:37.351Z,3.10
2018-06-27T18:11:06.407Z,3.37
2018-06-27T18:13:35.439Z,3.50
2018-06-27T18:16:04.470Z,3.87
2018-06-27T18:18:33.466Z,3.40
2018-06-27T18:21:06.059Z,4.30
2018-06-27T18:23:35.158Z,3.87
2018-06-27T18:26:04.287Z,3.60
2018-06-27T18:28:33.411Z,3.37
2018-06-27T18:31:02.444Z,3.83
2018-06-27T18:33:32.132Z,3.43
2018-06-27T18:36:01.131Z,3.30
2018-06-27T18:38:30.191Z,3.53
2018-06-27T18:40:59.355Z,3.60
2018-06-27T18:43:28.475Z,3.57
2018-06-27T18:45:57.513Z,3.83
2018-06-27T18:48:26.662Z,3.80
2018-06-27T18:50:55.978Z,3.90
2018-06-27T18:53:25.003Z,3.73
2018-06-27T18:55:54.093Z,3.90
2018-06-27T18:58:23.122Z,4.23
2018-06-27T19:00:52.185Z,3.67
2018-06-27T19:03:21.151Z,3.87
2018-06-27T19:05:50.182Z,4.20
2018-06-27T19:08:19.328Z,3.57
2018-06-27T19:10:48.333Z,4.27
2018-06-27T19:13:17.323Z,4.27
2018-06-27T19:15:46.351Z,4.30
2018-06-27T19:18:15.464Z,4.37
2018-06-27T19:20:44.310Z,4.47
2018-06-27T19:23:13.379Z,6.67
2018-06-27T19:25:42.358Z,4.37
2018-06-27T19:28:11.343Z,4.23
2018-06-27T19:30:40.387Z,4.37
2018-06-27T19:33:09.394Z,4.67
2018-06-27T19:35:38.399Z,4.13
2018-06-27T19:38:07.471Z,4.43
2018-06-27T19:40:36.463Z,4.40
2018-06-27T19:43:05.719Z,4.53
2018-06-27T19:45:34.775Z,4.10
2018-06-27T19:48:03.779Z,4.30
2018-06-27T19:50:32.841Z,4.47
2018-06-27T19:53:02.347Z,4.43
2018-06-27T19:55:31.360Z,4.83
2018-06-27T19:58:00.567Z,5.30
2018-06-27T20:00:29.919Z,5.60
2018-06-27T20:02:58.886Z,5.90
2018-06-27T20:05:27.897Z,6.17
2018-06-27T20:07:57.139Z,5.53
2018-06-27T20:10:26.056Z,6.00
2018-06-27T20:12:55.013Z,6.30
2018-06-27T20:15:24.082Z,5.90
2018-06-27T20:17:53.113Z,5.80
2018-06-27T20:20:22.257Z,5.50
2018-06-27T20:22:51.335Z,6.10
2018-06-27T20:25:20.407Z,5.97
2018-06-27T20:27:49.578Z,5.97
2018-06-27T20:30:18.613Z,5.37
2018-06-27T20:32:47.703Z,5.63
2018-06-27T20:35:16.851Z,5.13
2018-06-27T20:37:45.872Z,5.30
2018-06-27T20:40:14.927Z,5.30
2018-06-27T20:42:43.991Z,5.37
2018-06-27T20:45:12.987Z,5.53
2018-06-27T20:47:42.376Z,5.77
2018-06-27T20:50:12.989Z,5.30
2018-06-27T20:52:42.063Z,6.17
2018-06-27T20:55:11.095Z,6.33
2018-06-27T20:57:40.199Z,6.00
2018-06-27T21:00:09.210Z,6.37
2018-06-27T21:02:38.207Z,5.97
2018-06-27T21:05:08.600Z,6.20
2018-06-27T21:07:37.619Z,5.70
2018-06-27T21:10:06.861Z,5.97
2018-06-27T21:12:35.947Z,5.70
2018-06-27T21:15:05.134Z,6.17
2018-06-27T21:17:34.321Z,6.10
2018-06-27T21:20:03.347Z,6.40
2018-06-27T21:22:32.500Z,6.77
2018-06-27T21:25:01.663Z,6.47
2018-06-27T21:27:31.483Z,6.57
2018-06-27T21:30:00.559Z,6.47
2018-06-27T21:32:29.627Z,7.07
2018-06-27T21:34:58.627Z,6.57
2018-06-27T21:37:27.671Z,6.57
2018-06-27T21:39:56.658Z,6.93
2018-06-27T21:42:25.686Z,6.73
2018-06-27T21:44:54.789Z,6.97
2018-06-27T21:47:23.910Z,6.43
2018-06-27T21:49:52.916Z,7.03
2018-06-27T21:52:21.936Z,6.93
2018-06-27T21:54:51.083Z,7.00
2018-06-27T21:57:20.213Z,7.00
2018-06-27T21:59:49.327Z,7.50
2018-06-27T22:02:18.331Z,7.03
2018-06-27T22:04:47.317Z,6.57
2018-06-27T22:07:16.364Z,6.53
2018-06-27T22:09:45.555Z,6.90
2018-06-27T22:12:14.605Z,6.57
2018-06-27T22:14:43.607Z,7.20
2018-06-27T22:17:12.687Z,6.50
2018-06-27T22:19:41.703Z,7.00
2018-06-27T22:22:10.937Z,7.37
2018-06-27T22:24:39.990Z,7.93
2018-06-27T22:27:09.174Z,7.00
2018-06-27T22:29:38.215Z,7.47
2018-06-27T22:32:07.335Z,7.97
2018-06-27T22:34:36.511Z,7.40
2018-06-27T22:37:05.594Z,7.47
2018-06-27T22:39:34.647Z,8.07
2018-06-27T22:42:03.959Z,7.57
2018-06-27T22:44:33.075Z,7.83
2018-06-27T22:47:02.182Z,7.30
2018-06-27T22:49:31.239Z,7.17
2018-06-27T22:52:00.411Z,7.97
2018-06-27T22:54:29.492Z,7.73
2018-06-27T22:56:58.542Z,7.10
2018-06-27T22:59:27.715Z,7.17
2018-06-27T23:01:56.759Z,7.27
2018-06-27T23:04:25.900Z,7.40
2018-06-27T23:06:54.971Z,7.50
2018-06-27T23:09:24.058Z,7.93
2018-06-27T23:11:53.051Z,6.30
2018-06-27T23:14:22.118Z,7.60
2018-06-27T23:16:51.283Z,7.27
2018-06-27T23:19:20.435Z,8.00
2018-06-27T23:21:49.334Z,7.63
2018-06-27T23:24:18.302Z,7.70
2018-06-27T23:26:47.275Z,7.43
2018-06-27T23:29:16.368Z,7.37
2018-06-27T23:31:46.179Z,7.97
2018-06-27T23:34:15.219Z,7.73
2018-06-27T23:36:44.208Z,7.77
2018-06-27T23:39:13.839Z,7.53
2018-06-27T23:41:43.423Z,7.70
2018-06-27T23:44:12.590Z,7.47
2018-06-27T23:46:41.597Z,8.03
2018-06-27T23:49:10.602Z,8.00
2018-06-27T23:51:45.966Z,7.40
2018-06-27T23:54:15.008Z,7.53
2018-06-27T23:56:44.025Z,7.73
2018-06-27T23:59:13.043Z,7.23
